createdAt,value
2023-01-21T00:03:09.391Z,94.79
2023-01-21T00:08:03.407Z,95.38
2023-01-21T00:12:57.096Z,95.69
2023-01-21T00:17:54.069Z,95.90
2023-01-21T00:22:49.667Z,96.12
2023-01-21T00:27:49.388Z,95.67
2023-01-21T00:32:41.906Z,95.83
2023-01-21T00:37:34.710Z,100.00
2023-01-21T00:42:25.895Z,100.00
2023-01-21T00:47:29.561Z,100.00
2023-01-21T00:52:24.517Z,97.47
2023-01-21T00:57:23.295Z,96.95
2023-01-21T01:02:20.433Z,96.90
2023-01-21T01:07:16.355Z,96.67
2023-01-21T01:12:12.146Z,96.41
2023-01-21T01:17:05.835Z,97.34
2023-01-21T01:21:58.872Z,96.78
2023-01-21T01:26:59.380Z,96.00
2023-01-21T01:31:58.912Z,96.73
2023-01-21T01:36:58.897Z,96.61
2023-01-21T01:41:50.119Z,96.97
2023-01-21T01:46:40.718Z,97.37
2023-01-21T01:51:34.567Z,97.13
2023-01-21T01:56:31.877Z,97.29
2023-01-21T02:01:21.454Z,96.91
2023-01-21T02:06:12.063Z,97.92
2023-01-21T02:11:02.948Z,97.71
2023-01-21T02:16:09.862Z,97.53
2023-01-21T02:21:24.718Z,97.81
2023-01-21T02:26:33.556Z,98.43
2023-01-21T02:31:35.066Z,97.80
2023-01-21T02:36:44.432Z,97.08
2023-01-21T02:41:43.666Z,97.43
2023-01-21T02:46:40.491Z,97.10
2023-01-21T02:51:32.094Z,97.82
2023-01-21T02:56:25.559Z,97.16
2023-01-21T03:01:27.152Z,96.64
2023-01-21T03:06:36.051Z,97.01
2023-01-21T03:11:27.741Z,96.43
2023-01-21T03:16:37.384Z,97.03
2023-01-21T03:21:28.574Z,97.14
2023-01-21T03:26:21.500Z,97.33
2023-01-21T03:31:13.869Z,96.91
2023-01-21T03:36:12.460Z,96.82
2023-01-21T03:41:04.691Z,97.37
2023-01-21T03:45:58.189Z,97.31
2023-01-21T03:50:51.480Z,97.09
2023-01-21T03:55:43.920Z,96.72
2023-01-21T04:00:33.475Z,97.32
2023-01-21T04:05:27.570Z,97.66
2023-01-21T04:10:18.055Z,98.16
2023-01-21T04:15:12.756Z,98.30
2023-01-21T04:20:04.846Z,97.79
2023-01-21T04:24:54.746Z,97.25
2023-01-21T04:29:44.366Z,97.49
2023-01-21T04:34:37.294Z,97.52
2023-01-21T04:39:29.801Z,98.08
2023-01-21T04:44:23.766Z,97.68
2023-01-21T04:49:16.243Z,97.24
2023-01-21T04:54:09.639Z,97.15
2023-01-21T04:59:02.799Z,97.10
2023-01-21T05:03:55.637Z,97.15
2023-01-21T05:08:50.683Z,97.10
2023-01-21T05:13:43.493Z,96.93
2023-01-21T05:18:34.013Z,97.31
2023-01-21T05:23:24.713Z,96.77
2023-01-21T05:28:14.915Z,96.76
2023-01-21T05:33:07.585Z,96.56
2023-01-21T05:38:00.154Z,96.50
2023-01-21T05:42:51.203Z,95.97
2023-01-21T05:47:45.486Z,96.01
2023-01-21T05:52:38.937Z,96.02
2023-01-21T05:57:32.929Z,96.08
2023-01-21T06:02:41.107Z,96.42
2023-01-21T06:07:32.349Z,95.95
2023-01-21T06:12:35.242Z,95.53
2023-01-21T06:17:27.343Z,96.10
2023-01-21T06:22:17.962Z,95.93
2023-01-21T06:27:08.789Z,95.96
2023-01-21T06:32:03.168Z,95.99
2023-01-21T06:36:58.825Z,96.00
2023-01-21T06:41:50.435Z,96.05
2023-01-21T06:46:45.930Z,95.85
2023-01-21T06:51:44.999Z,95.93
2023-01-21T06:56:41.817Z,96.29
2023-01-21T07:01:32.747Z,95.88
2023-01-21T07:06:26.744Z,96.22
2023-01-21T07:11:19.123Z,95.76
2023-01-21T07:16:12.502Z,96.41
2023-01-21T07:21:02.562Z,96.34
2023-01-21T07:25:52.466Z,96.46
2023-01-21T07:30:59.339Z,97.50
2023-01-21T07:35:51.981Z,97.28
2023-01-21T07:40:45.208Z,97.09
2023-01-21T07:45:37.176Z,97.20
2023-01-21T07:50:31.043Z,97.54
2023-01-21T07:55:25.867Z,97.37
2023-01-21T08:00:17.285Z,97.53
2023-01-21T08:05:07.061Z,97.24
2023-01-21T08:10:06.632Z,97.08
2023-01-21T08:14:58.174Z,97.10
2023-01-21T08:19:51.521Z,97.00
2023-01-21T08:24:45.908Z,96.87
2023-01-21T08:29:39.126Z,96.76
2023-01-21T08:34:33.187Z,96.82
2023-01-21T08:39:23.760Z,96.80
2023-01-21T08:44:15.279Z,96.71
2023-01-21T08:49:12.115Z,96.49
2023-01-21T08:54:03.725Z,96.24
2023-01-21T08:58:57.052Z,95.96
2023-01-21T09:03:47.111Z,95.94
2023-01-21T09:08:40.967Z,95.60
2023-01-21T09:13:31.624Z,95.48
2023-01-21T09:18:26.939Z,95.54
2023-01-21T09:23:34.488Z,96.19
2023-01-21T09:28:32.889Z,95.25
2023-01-21T09:33:29.677Z,95.58
2023-01-21T09:38:20.046Z,96.21
2023-01-21T09:43:16.302Z,95.55
2023-01-21T09:48:12.383Z,95.17
2023-01-21T09:53:07.775Z,95.21
2023-01-21T09:58:18.056Z,95.74
2023-01-21T10:03:30.659Z,96.50
2023-01-21T10:08:25.780Z,96.31
2023-01-21T10:13:31.540Z,96.72
2023-01-21T10:18:32.355Z,96.75
2023-01-21T10:23:32.708Z,96.96
2023-01-21T10:28:26.001Z,96.89
2023-01-21T10:33:27.564Z,97.47
2023-01-21T10:38:25.408Z,97.51
2023-01-21T10:43:26.815Z,97.32
2023-01-21T10:48:22.161Z,97.24
2023-01-21T10:53:20.880Z,97.34
2023-01-21T10:58:26.374Z,97.03
2023-01-21T11:03:19.188Z,97.37
2023-01-21T11:08:09.208Z,97.19
2023-01-21T11:12:59.310Z,96.80
2023-01-21T11:18:00.266Z,96.73
2023-01-21T11:22:54.348Z,96.78
2023-01-21T11:27:45.266Z,96.70
2023-01-21T11:32:36.077Z,97.51
2023-01-21T11:37:31.800Z,96.72
2023-01-21T11:42:25.201Z,95.23
2023-01-21T11:47:36.545Z,95.03
2023-01-21T11:52:30.583Z,93.84
2023-01-21T11:57:29.467Z,94.51
2023-01-21T12:02:24.539Z,93.79
2023-01-21T12:07:20.428Z,92.28
2023-01-21T12:12:28.030Z,92.06
2023-01-21T12:17:26.431Z,92.24
2023-01-21T12:22:29.849Z,92.66
2023-01-21T12:27:27.495Z,92.95
2023-01-21T12:32:28.645Z,93.52
2023-01-21T12:37:30.342Z,94.39
2023-01-21T12:42:32.633Z,94.42
2023-01-21T12:47:33.478Z,94.23
2023-01-21T12:52:26.860Z,94.32
2023-01-21T12:57:21.972Z,94.95
2023-01-21T13:02:27.972Z,95.20
2023-01-21T13:12:26.358Z,94.56
2023-01-21T13:17:21.209Z,94.51
2023-01-21T13:22:23.781Z,95.22
2023-01-21T13:27:32.012Z,95.01
2023-01-21T13:32:43.272Z,94.43
2023-01-21T13:37:40.245Z,94.37
2023-01-21T13:42:40.725Z,94.11
2023-01-21T13:47:51.789Z,94.08
2023-01-21T13:52:50.765Z,93.53
2023-01-21T13:57:49.478Z,94.07
2023-01-21T14:02:48.761Z,94.32
2023-01-21T14:07:41.889Z,94.25
2023-01-21T14:12:41.653Z,95.67
2023-01-21T14:17:38.962Z,95.75
2023-01-21T14:22:50.134Z,95.26
2023-01-21T14:27:51.714Z,95.15
2023-01-21T14:32:44.148Z,95.41
2023-01-21T14:37:36.399Z,96.36
2023-01-21T14:42:42.848Z,97.09
2023-01-21T14:47:47.310Z,98.03
2023-01-21T14:52:39.372Z,97.90
2023-01-21T14:57:36.070Z,98.42
2023-01-21T15:02:31.538Z,97.80
2023-01-21T15:07:22.669Z,98.90
2023-01-21T15:12:19.084Z,98.78
2023-01-21T15:17:42.001Z,98.73
2023-01-21T15:22:49.897Z,99.62
2023-01-21T15:27:39.578Z,100.00
2023-01-21T15:32:38.252Z,99.47
2023-01-21T15:37:31.072Z,99.40
2023-01-21T15:42:29.440Z,98.21
2023-01-21T15:47:52.098Z,99.47
2023-01-21T15:53:09.525Z,99.61
2023-01-21T15:58:16.198Z,99.42
2023-01-21T16:03:28.214Z,100.00
2023-01-21T16:08:38.235Z,100.00
2023-01-21T16:13:47.099Z,99.37
2023-01-21T16:18:52.912Z,99.05
2023-01-21T16:23:47.191Z,99.21
2023-01-21T16:28:46.174Z,98.82
2023-01-21T16:33:36.740Z,98.16
2023-01-21T16:38:29.937Z,98.74
2023-01-21T16:43:30.822Z,98.31
2023-01-21T16:48:28.100Z,100.00
2023-01-21T16:53:20.064Z,100.00
2023-01-21T16:58:39.233Z,100.00
2023-01-21T17:03:32.480Z,100.00
2023-01-21T17:08:26.279Z,100.00
2023-01-21T17:13:22.047Z,100.00
2023-01-21T17:18:29.647Z,100.00
2023-01-21T17:23:25.175Z,100.00
2023-01-21T17:28:34.486Z,100.00
2023-01-21T17:33:33.630Z,100.00
2023-01-21T17:38:33.647Z,100.00
2023-01-21T17:43:28.376Z,100.00
2023-01-21T17:48:29.728Z,100.00
2023-01-21T17:53:31.303Z,100.00
2023-01-21T17:58:59.035Z,100.00
2023-01-21T18:03:58.081Z,100.00
2023-01-21T18:08:57.621Z,100.00
2023-01-21T18:13:50.541Z,100.00
2023-01-21T18:18:43.416Z,100.00
2023-01-21T18:23:33.908Z,100.00
2023-01-21T18:28:30.936Z,100.00
2023-01-21T18:33:25.937Z,100.00
2023-01-21T18:38:22.303Z,100.00
2023-01-21T18:43:17.875Z,100.00
2023-01-21T18:48:17.680Z,100.00
2023-01-21T18:53:09.574Z,100.00
2023-01-21T18:58:09.884Z,100.00
2023-01-21T19:03:04.161Z,100.00
2023-01-21T19:08:00.703Z,100.00
2023-01-21T19:12:58.836Z,100.00
2023-01-21T19:17:51.489Z,100.00
2023-01-21T19:22:43.884Z,100.00
2023-01-21T19:27:52.072Z,100.00
2023-01-21T19:32:42.046Z,100.00
2023-01-21T19:37:37.004Z,100.00
2023-01-21T19:42:27.811Z,100.00
2023-01-21T19:47:34.606Z,100.00
2023-01-21T19:52:31.383Z,100.00
2023-01-21T19:57:29.257Z,100.00
2023-01-21T20:02:25.938Z,100.00
2023-01-21T20:07:23.569Z,100.00
2023-01-21T20:17:37.213Z,100.00
2023-01-21T20:22:43.594Z,100.00
2023-01-21T20:27:42.829Z,100.00
2023-01-21T20:32:36.857Z,100.00
2023-01-21T20:37:35.519Z,100.00
2023-01-21T20:42:35.065Z,100.00
2023-01-21T20:47:38.621Z,100.00
2023-01-21T20:52:43.500Z,100.00
2023-01-21T20:57:37.239Z,100.00
2023-01-21T21:02:31.112Z,100.00
2023-01-21T21:07:27.155Z,100.00
2023-01-21T21:12:35.862Z,100.00
2023-01-21T21:17:28.106Z,100.00
2023-01-21T21:22:19.081Z,100.00
2023-01-21T21:27:15.427Z,100.00
2023-01-21T21:32:17.833Z,100.00
2023-01-21T21:37:11.329Z,100.00
2023-01-21T21:42:16.571Z,99.97
2023-01-21T21:47:26.890Z,99.71
2023-01-21T21:52:18.360Z,99.52
2023-01-21T21:57:15.888Z,99.01
2023-01-21T22:02:14.916Z,99.38
2023-01-21T22:07:05.908Z,99.61
2023-01-21T22:11:56.799Z,100.00
2023-01-21T22:16:52.274Z,99.77
2023-01-21T22:21:51.966Z,99.80
2023-01-21T22:26:45.574Z,99.27
2023-01-21T22:31:49.708Z,99.49
2023-01-21T22:36:46.603Z,98.56
2023-01-21T22:41:39.283Z,99.35
2023-01-21T22:46:34.957Z,98.94
2023-01-21T22:51:26.957Z,98.95
2023-01-21T22:56:19.468Z,98.73
2023-01-21T23:01:23.438Z,99.23
2023-01-21T23:06:16.788Z,98.66
2023-01-21T23:11:09.548Z,98.35
2023-01-21T23:16:05.247Z,98.48
2023-01-21T23:20:58.842Z,99.27
2023-01-21T23:25:50.493Z,98.32
2023-01-21T23:30:40.571Z,98.49
2023-01-21T23:35:34.192Z,98.46
2023-01-21T23:40:27.624Z,98.22
2023-01-21T23:45:21.911Z,97.98
2023-01-21T23:50:14.477Z,98.13
2023-01-21T23:55:04.813Z,98.13
2023-01-21T23:59:57.560Z,98.78
